createdAt,value
2023-02-01T00:04:30.926Z,3.16
2023-02-01T00:09:34.586Z,3.30
2023-02-01T00:14:39.594Z,3.20
2023-02-01T00:19:44.114Z,3.30
2023-02-01T00:24:47.256Z,3.35
2023-02-01T00:29:50.417Z,3.43
2023-02-01T00:34:55.053Z,3.47
2023-02-01T00:39:58.340Z,3.53
2023-02-01T00:45:02.235Z,3.63
2023-02-01T00:50:07.557Z,3.35
2023-02-01T00:55:11.117Z,3.53
2023-02-01T01:00:15.042Z,3.53
2023-02-01T01:05:19.655Z,3.60
2023-02-01T01:10:23.525Z,3.69
2023-02-01T01:15:26.776Z,3.76
2023-02-01T01:20:31.360Z,3.80
2023-02-01T01:25:34.998Z,3.67
2023-02-01T01:30:38.682Z,3.64
2023-02-01T01:35:44.227Z,3.71
2023-02-01T01:40:47.892Z,3.73
2023-02-01T01:45:51.885Z,3.85
2023-02-01T01:51:03.630Z,3.72
2023-02-01T01:56:07.313Z,3.68
2023-02-01T02:01:10.801Z,3.61
2023-02-01T02:06:24.356Z,3.62
2023-02-01T02:11:27.514Z,3.62
2023-02-01T02:16:55.129Z,3.63
2023-02-01T02:22:20.354Z,3.73
2023-02-01T02:27:32.754Z,3.77
2023-02-01T02:33:05.808Z,3.64
2023-02-01T02:38:20.174Z,3.46
2023-02-01T02:43:45.531Z,3.54
2023-02-01T02:48:57.338Z,3.50
2023-02-01T02:54:28.370Z,3.45
2023-02-01T02:59:52.340Z,3.18
2023-02-01T03:04:57.496Z,3.20
2023-02-01T03:10:07.595Z,3.23
2023-02-01T03:15:14.232Z,3.43
2023-02-01T03:20:22.163Z,3.40
2023-02-01T03:25:31.186Z,3.48
2023-02-01T03:30:38.358Z,3.59
2023-02-01T03:35:48.792Z,3.47
2023-02-01T03:40:58.327Z,3.60
2023-02-01T03:46:05.565Z,3.40
2023-02-01T03:51:11.677Z,3.41
2023-02-01T03:56:18.123Z,3.47
2023-02-01T04:01:21.631Z,3.58
2023-02-01T04:06:24.987Z,3.49
2023-02-01T04:11:31.197Z,3.55
2023-02-01T04:16:35.331Z,3.62
2023-02-01T04:21:38.657Z,3.51
2023-02-01T04:26:44.252Z,3.64
2023-02-01T04:31:47.622Z,3.76
2023-02-01T04:36:51.054Z,3.69
2023-02-01T04:41:55.530Z,3.51
2023-02-01T04:46:59.727Z,3.56
2023-02-01T04:52:02.871Z,3.56
2023-02-01T04:57:07.553Z,3.47
2023-02-01T05:02:11.250Z,3.54
2023-02-01T05:07:15.020Z,3.59
2023-02-01T05:12:37.456Z,3.61
2023-02-01T05:17:42.031Z,3.79
2023-02-01T05:22:45.871Z,3.61
2023-02-01T05:27:50.934Z,3.60
2023-02-01T05:32:55.255Z,3.66
2023-02-01T05:37:58.602Z,3.58
2023-02-01T05:43:03.431Z,3.50
2023-02-01T05:48:07.147Z,3.53
2023-02-01T05:53:10.356Z,3.46
2023-02-01T05:58:15.363Z,3.32
2023-02-01T06:03:18.739Z,3.28
2023-02-01T06:08:21.973Z,3.39
2023-02-01T06:13:26.623Z,3.47
2023-02-01T06:18:30.893Z,3.46
2023-02-01T06:23:34.016Z,3.33
2023-02-01T06:28:39.922Z,3.15
2023-02-01T06:33:43.200Z,3.31
2023-02-01T06:38:47.425Z,3.31
2023-02-01T06:43:52.528Z,3.36
2023-02-01T06:48:55.607Z,3.43
2023-02-01T06:53:59.152Z,3.32
2023-02-01T06:59:05.922Z,3.53
2023-02-01T07:04:09.056Z,3.55
2023-02-01T07:09:13.227Z,3.40
2023-02-01T07:14:17.893Z,3.57
2023-02-01T07:19:21.078Z,3.60
2023-02-01T07:24:24.587Z,3.61
2023-02-01T07:29:29.229Z,3.64
2023-02-01T07:34:32.629Z,3.66
2023-02-01T07:39:35.937Z,3.77
2023-02-01T07:44:40.732Z,3.75
2023-02-01T07:49:44.215Z,3.94
2023-02-01T07:54:47.309Z,4.05
2023-02-01T08:00:11.708Z,3.95
2023-02-01T08:05:18.391Z,4.19
2023-02-01T08:10:22.220Z,4.20
2023-02-01T08:15:26.998Z,4.02
2023-02-01T08:20:30.543Z,4.30
2023-02-01T08:25:33.779Z,4.34
2023-02-01T08:30:40.385Z,4.48
2023-02-01T08:35:44.415Z,4.39
2023-02-01T08:40:47.925Z,4.66
2023-02-01T08:45:52.649Z,4.90
2023-02-01T08:50:55.865Z,4.67
2023-02-01T08:55:59.104Z,4.64
2023-02-01T09:01:06.588Z,4.47
2023-02-01T09:06:12.648Z,4.60
2023-02-01T09:11:17.626Z,4.64
2023-02-01T09:16:22.241Z,4.39
2023-02-01T09:21:25.815Z,4.51
2023-02-01T09:26:33.161Z,4.65
2023-02-01T09:31:40.057Z,4.97
2023-02-01T09:36:45.032Z,4.84
2023-02-01T09:41:59.280Z,4.91
2023-02-01T09:47:03.994Z,4.99
2023-02-01T09:52:10.539Z,5.26
2023-02-01T09:57:19.486Z,4.85
2023-02-01T10:02:27.160Z,4.90
2023-02-01T10:07:39.886Z,4.98
2023-02-01T10:13:10.350Z,5.15
2023-02-01T10:18:44.636Z,4.84
2023-02-01T10:24:17.973Z,5.44
2023-02-01T10:29:27.107Z,5.67
2023-02-01T10:34:36.516Z,5.78
2023-02-01T10:39:39.782Z,5.55
2023-02-01T10:44:46.550Z,5.57
2023-02-01T10:49:57.659Z,5.52
2023-02-01T10:55:35.889Z,5.67
2023-02-01T11:00:45.552Z,5.63
2023-02-01T11:05:50.168Z,5.20
2023-02-01T11:11:02.081Z,5.46
2023-02-01T11:16:06.785Z,5.14
2023-02-01T11:21:11.982Z,5.37
2023-02-01T11:26:24.376Z,5.20
2023-02-01T11:31:30.083Z,5.10
2023-02-01T11:36:36.003Z,5.35
2023-02-01T11:41:46.243Z,5.26
2023-02-01T11:46:49.869Z,5.79
2023-02-01T11:52:14.239Z,5.61
2023-02-01T11:57:45.126Z,5.50
2023-02-01T12:03:10.054Z,5.19
2023-02-01T12:08:35.588Z,5.24
2023-02-01T12:13:57.809Z,5.57
2023-02-01T12:19:39.802Z,5.69
2023-02-01T12:25:09.631Z,5.50
2023-02-01T12:30:42.584Z,5.24
2023-02-01T12:36:02.136Z,5.29
2023-02-01T12:41:16.136Z,5.29
2023-02-01T12:46:26.690Z,5.13
2023-02-01T12:51:34.752Z,4.99
2023-02-01T12:56:43.361Z,5.15
2023-02-01T13:01:57.599Z,5.34
2023-02-01T13:07:08.605Z,5.46
2023-02-01T13:12:16.741Z,5.70
2023-02-01T13:17:25.808Z,5.95
2023-02-01T13:22:33.495Z,5.86
2023-02-01T13:27:37.297Z,6.10
2023-02-01T13:33:54.546Z,5.76
2023-02-01T13:39:00.142Z,5.80
2023-02-01T13:44:08.589Z,5.29
2023-02-01T13:49:21.450Z,5.31
2023-02-01T13:54:31.443Z,5.09
2023-02-01T14:00:24.840Z,4.99
2023-02-01T14:06:02.363Z,4.79
2023-02-01T14:11:06.441Z,4.97
2023-02-01T14:16:19.184Z,4.60
2023-02-01T14:21:29.459Z,4.53
2023-02-01T14:26:48.583Z,4.64
2023-02-01T14:32:03.860Z,4.75
2023-02-01T14:37:12.733Z,4.54
2023-02-01T14:42:24.668Z,4.34
2023-02-01T14:47:34.148Z,4.50
2023-02-01T14:52:43.919Z,4.24
2023-02-01T14:57:51.257Z,4.57
2023-02-01T15:02:57.168Z,4.41
2023-02-01T15:08:11.355Z,4.34
2023-02-01T15:13:21.329Z,4.35
2023-02-01T15:18:24.668Z,4.34
2023-02-01T15:23:30.307Z,4.28
2023-02-01T15:28:34.591Z,4.16
2023-02-01T15:33:38.099Z,4.27
2023-02-01T15:38:43.975Z,4.09
2023-02-01T15:44:05.082Z,4.18
2023-02-01T15:49:23.287Z,4.30
2023-02-01T15:54:32.954Z,4.33
2023-02-01T15:59:45.097Z,4.31
2023-02-01T16:04:51.915Z,4.38
2023-02-01T16:09:58.781Z,4.42
2023-02-01T16:15:02.144Z,4.46
2023-02-01T16:20:06.488Z,4.31
2023-02-01T16:25:11.649Z,4.15
2023-02-01T16:30:15.849Z,4.12
2023-02-01T16:35:27.956Z,3.88
2023-02-01T16:40:32.731Z,3.94
2023-02-01T16:45:36.245Z,3.71
2023-02-01T16:50:40.224Z,3.84
2023-02-01T16:55:47.822Z,3.86
2023-02-01T17:00:51.935Z,4.11
2023-02-01T17:05:57.797Z,4.05
2023-02-01T17:11:02.981Z,4.13
2023-02-01T17:16:22.763Z,4.26
2023-02-01T17:21:27.829Z,4.08
2023-02-01T17:26:32.457Z,4.09
2023-02-01T17:31:39.263Z,4.16
2023-02-01T17:36:42.991Z,4.18
2023-02-01T17:41:47.932Z,4.29
2023-02-01T17:46:51.465Z,4.32
2023-02-01T17:51:54.911Z,4.48
2023-02-01T17:57:00.714Z,4.37
2023-02-01T18:02:03.971Z,4.40
2023-02-01T18:07:07.574Z,4.50
2023-02-01T18:12:20.159Z,4.47
2023-02-01T18:17:23.956Z,4.39
2023-02-01T18:22:27.639Z,4.45
2023-02-01T18:27:32.449Z,4.47
2023-02-01T18:32:35.728Z,4.40
2023-02-01T18:37:39.679Z,4.16
2023-02-01T18:42:46.479Z,4.21
2023-02-01T18:47:51.477Z,4.48
2023-02-01T18:52:56.385Z,4.49
2023-02-01T18:58:02.913Z,4.47
2023-02-01T19:03:06.780Z,4.58
2023-02-01T19:08:11.214Z,4.32
2023-02-01T19:13:16.327Z,3.89
2023-02-01T19:18:21.864Z,3.69
2023-02-01T19:23:25.335Z,3.71
2023-02-01T19:28:30.229Z,3.30
2023-02-01T19:33:33.854Z,3.17
2023-02-01T19:38:37.396Z,3.32
2023-02-01T19:43:42.567Z,3.35
2023-02-01T19:48:46.047Z,3.22
2023-02-01T19:53:49.534Z,3.39
2023-02-01T19:58:55.409Z,3.35
2023-02-01T20:04:01.903Z,3.24
2023-02-01T20:09:06.478Z,3.28
2023-02-01T20:14:11.549Z,3.32
2023-02-01T20:19:16.496Z,3.31
2023-02-01T20:24:20.370Z,3.49
2023-02-01T20:29:26.058Z,3.33
2023-02-01T20:34:29.918Z,3.30
2023-02-01T20:39:33.575Z,3.31
2023-02-01T20:44:38.547Z,3.26
2023-02-01T20:49:41.921Z,3.30
2023-02-01T20:54:45.157Z,3.16
2023-02-01T20:59:51.101Z,3.30
2023-02-01T21:04:54.256Z,3.28
2023-02-01T21:09:57.769Z,3.40
2023-02-01T21:15:02.573Z,3.60
2023-02-01T21:20:06.981Z,3.54
2023-02-01T21:25:10.849Z,3.35
2023-02-01T21:30:15.977Z,3.23
2023-02-01T21:35:19.369Z,3.19
2023-02-01T21:40:23.475Z,3.12
2023-02-01T21:45:27.862Z,3.28
2023-02-01T21:50:31.135Z,3.26
2023-02-01T21:55:34.370Z,3.17
2023-02-01T22:00:39.142Z,3.21
2023-02-01T22:05:43.254Z,3.42
2023-02-01T22:10:46.615Z,3.45
2023-02-01T22:15:52.149Z,3.60
2023-02-01T22:20:59.929Z,3.25
2023-02-01T22:26:04.369Z,3.50
2023-02-01T22:31:11.046Z,3.35
2023-02-01T22:36:17.110Z,3.34
2023-02-01T22:41:21.149Z,3.41
2023-02-01T22:46:28.611Z,3.24
2023-02-01T22:51:33.392Z,3.51
2023-02-01T22:56:37.952Z,3.55
2023-02-01T23:01:43.265Z,3.66
2023-02-01T23:06:47.026Z,3.64
2023-02-01T23:11:50.790Z,3.46
2023-02-01T23:16:55.426Z,3.44
2023-02-01T23:21:58.668Z,3.38
2023-02-01T23:27:02.782Z,3.38
2023-02-01T23:32:07.794Z,3.49
2023-02-01T23:37:11.148Z,3.42
2023-02-01T23:42:14.319Z,3.35
2023-02-01T23:47:18.901Z,3.43
2023-02-01T23:52:22.062Z,3.43
2023-02-01T23:57:25.405Z,3.24
